Terminal Aerodrome Forecast
Issued by NWS

Home | Current Version | Previous Version | Graphics & Text | Print | Product List | Glossary On
Versions: 1 2 3 4 5 6 7 8 9 10 11 12 13 14 15 16 17 18 19 20
000
FTUS43 KFGF 232341 CCA
TAFBJI
TAF COR
KBJI 232341Z 2400/2424 12006KT P6SM OVC050
      TEMPO 2400/2401 3SM -RA BR BKN015
     FM240100 12006KT P6SM OVC035
     FM240400 VRB06KT P6SM OVC015
     FM240900 34004KT 4SM BR BKN010
     FM241300 36008KT P6SM BKN025=

USA.gov is the U.S. government's official web portal to all federal, state and local government web resources and services.